In Rescue
 
Open Full Screen Window  High Contrast Mode
Wind Gusting 00 knots
03
January 22, 2020 5:23 PM EST
Weather Information
Wind Direction
  210 °
Wind Speed
  03 kt (3 mph)
Wind Gust
  00 kt (0 mph)
Altimeter
30.28 in
Visibility
10 SM
Temperature
-01° C
30° F
Dewpoint
-10° C
14° F
Humidity
51%
1hr Rain Fall
00.00 in.
24hr Rain Fall
00.00 in.
Sky Condition
Clear
VFR

METAR KTTF 222223Z AUTO 21003KT 10SM CLR M01/M10 A3028 RMK AO2 T10101097

FAA Disclaimer: The data displayed is for advisory purposes only and is not to be used for flight planning or operations.